createdAt,value
2023-03-03T00:00:23.184Z,4.6
2023-03-03T00:01:23.154Z,4.7
2023-03-03T00:02:23.369Z,4.6
2023-03-03T00:03:23.285Z,4.3
2023-03-03T00:05:23.177Z,4.3
2023-03-03T00:06:23.154Z,4.3
2023-03-03T00:07:23.317Z,4.2
2023-03-03T00:08:23.239Z,4.3
2023-03-03T00:09:23.162Z,4.4
2023-03-03T00:10:23.784Z,4.4
2023-03-03T00:11:23.157Z,4.6
2023-03-03T00:13:23.178Z,4.8
2023-03-03T00:14:23.188Z,4.8
2023-03-03T00:15:23.203Z,4.8
2023-03-03T00:16:23.330Z,4.8
2023-03-03T00:17:23.162Z,5
2023-03-03T00:18:23.165Z,4.9
2023-03-03T00:19:23.172Z,4.8
2023-03-03T00:21:23.168Z,4.8
2023-03-03T00:22:23.163Z,4.6
2023-03-03T00:23:23.170Z,4.5
2023-03-03T00:24:23.173Z,4.5
2023-03-03T00:26:23.174Z,4.7
2023-03-03T00:27:23.153Z,4.8
2023-03-03T00:28:23.175Z,4.9
2023-03-03T00:29:23.168Z,5
2023-03-03T00:30:23.174Z,5.1
2023-03-03T00:31:23.244Z,4.9
2023-03-03T00:32:23.261Z,4.8
2023-03-03T00:34:23.202Z,5.1
2023-03-03T00:35:23.323Z,5
2023-03-03T00:36:23.165Z,4.9
2023-03-03T00:37:23.149Z,4.7
2023-03-03T00:38:23.140Z,4.9
2023-03-03T00:39:23.185Z,5
2023-03-03T00:40:23.175Z,5
2023-03-03T00:41:23.169Z,4.9
2023-03-03T00:42:23.136Z,4.6
2023-03-03T00:43:23.182Z,4.5
2023-03-03T00:44:23.165Z,4.6
2023-03-03T00:45:23.171Z,4.3
2023-03-03T00:47:23.145Z,4.4
2023-03-03T00:48:23.148Z,4.4
2023-03-03T00:49:23.185Z,4.4
2023-03-03T00:50:23.151Z,4.4
2023-03-03T00:51:23.226Z,4.3
2023-03-03T00:52:23.188Z,4.5
2023-03-03T00:53:23.183Z,4.7
2023-03-03T00:54:23.194Z,4.9
2023-03-03T00:55:23.182Z,5
2023-03-03T00:56:23.144Z,5.1
2023-03-03T00:58:23.160Z,5.3
2023-03-03T00:59:23.217Z,5.3
2023-03-03T01:00:23.171Z,5.4
2023-03-03T01:01:23.233Z,5.5
2023-03-03T01:02:23.238Z,5.5
2023-03-03T01:03:23.143Z,5.5
2023-03-03T01:04:23.146Z,5.7
2023-03-03T01:05:23.146Z,5.6
2023-03-03T01:06:23.167Z,5.6
2023-03-03T01:07:23.189Z,5.7
2023-03-03T01:08:23.150Z,5.7
2023-03-03T01:09:23.136Z,5.8
2023-03-03T01:10:23.135Z,5.8
2023-03-03T01:11:23.169Z,5.7
2023-03-03T01:12:23.157Z,5.7
2023-03-03T01:13:23.147Z,5.5
2023-03-03T01:14:23.255Z,5.5
2023-03-03T01:15:23.138Z,5.6
2023-03-03T01:16:23.242Z,5.5
2023-03-03T01:17:23.143Z,5.5
2023-03-03T01:18:23.154Z,5.6
2023-03-03T01:19:23.141Z,5.7
2023-03-03T01:20:23.138Z,5.7
2023-03-03T01:21:23.149Z,5.7
2023-03-03T01:22:23.166Z,5.7
2023-03-03T01:23:23.148Z,5.5
2023-03-03T01:24:23.224Z,5.4
2023-03-03T01:25:23.139Z,5.5
2023-03-03T01:27:23.204Z,5.6
2023-03-03T01:28:23.134Z,5.5
2023-03-03T01:29:23.143Z,5.4
2023-03-03T01:30:23.167Z,5.6
2023-03-03T01:31:23.275Z,5.5
2023-03-03T01:32:23.222Z,5.6
2023-03-03T01:33:23.155Z,5.7
2023-03-03T01:35:23.202Z,5.6
2023-03-03T01:36:23.145Z,5.6
2023-03-03T01:37:23.158Z,5.6
2023-03-03T01:38:23.146Z,5.4
2023-03-03T01:40:23.134Z,5.5
2023-03-03T01:41:23.136Z,5.7
2023-03-03T01:42:23.141Z,5.5
2023-03-03T01:43:23.150Z,5.5
2023-03-03T01:44:23.149Z,5.6
2023-03-03T01:45:23.137Z,5.4
2023-03-03T01:46:23.189Z,5.4
2023-03-03T01:48:23.137Z,5.4
2023-03-03T01:49:23.150Z,5.5
2023-03-03T01:50:23.153Z,5.8
2023-03-03T01:51:23.134Z,5.6
2023-03-03T01:52:23.141Z,5.7
2023-03-03T01:53:23.217Z,5.7
2023-03-03T01:56:23.154Z,5.2
2023-03-03T01:57:23.165Z,5.4
2023-03-03T01:58:23.144Z,5.4
2023-03-03T01:59:23.143Z,5.3
2023-03-03T02:01:23.222Z,5.4
2023-03-03T02:02:23.129Z,5.3
2023-03-03T02:03:23.180Z,5.4
2023-03-03T02:04:23.141Z,5.6
2023-03-03T02:05:23.154Z,5.7
2023-03-03T02:06:23.145Z,5.5
2023-03-03T02:07:23.142Z,5.5
2023-03-03T02:09:23.128Z,5.3
2023-03-03T02:10:23.136Z,5.1
2023-03-03T02:11:23.133Z,5.3
2023-03-03T02:12:23.133Z,5.5
2023-03-03T02:13:23.130Z,5.6
2023-03-03T02:15:23.144Z,5.6
2023-03-03T02:16:23.224Z,5.4
2023-03-03T02:17:23.142Z,5.4
2023-03-03T02:18:23.137Z,5.2
2023-03-03T02:20:23.141Z,5.4
2023-03-03T02:21:23.146Z,5.2
2023-03-03T02:22:23.208Z,5.3
2023-03-03T02:23:23.148Z,5.2
2023-03-03T02:24:23.174Z,5.2
2023-03-03T02:25:23.137Z,5.1
2023-03-03T02:26:23.153Z,4.9
2023-03-03T02:28:23.141Z,5.3
2023-03-03T02:29:23.223Z,5.2
2023-03-03T02:30:23.135Z,5.3
2023-03-03T02:31:23.215Z,5.3
2023-03-03T02:32:23.210Z,5.4
2023-03-03T02:33:23.138Z,5.5
2023-03-03T02:34:23.173Z,5.4
2023-03-03T02:35:23.211Z,5.3
2023-03-03T02:36:23.139Z,5.3
2023-03-03T02:37:23.151Z,5.3
2023-03-03T02:38:23.140Z,5.4
2023-03-03T02:39:23.135Z,5.5
2023-03-03T02:41:23.138Z,5.7
2023-03-03T02:42:23.141Z,5.5
2023-03-03T02:43:23.186Z,5.6
2023-03-03T02:44:23.179Z,5.5
2023-03-03T02:45:23.202Z,5.5
2023-03-03T02:46:23.137Z,5.3
2023-03-03T02:47:23.170Z,5.1
2023-03-03T02:49:23.130Z,5.1
2023-03-03T02:50:23.136Z,4.9
2023-03-03T02:51:23.180Z,4.8
2023-03-03T02:52:23.140Z,4.6
2023-03-03T02:53:23.143Z,4.5
2023-03-03T02:54:23.153Z,4.5
2023-03-03T02:55:23.164Z,4.6
2023-03-03T02:56:23.130Z,4.7
2023-03-03T02:57:23.156Z,5
2023-03-03T02:58:23.137Z,5
2023-03-03T02:59:23.142Z,5
2023-03-03T03:00:23.130Z,4.8
2023-03-03T03:02:23.121Z,4.8
2023-03-03T03:03:23.141Z,4.8
2023-03-03T03:04:23.317Z,4.8
2023-03-03T03:05:23.124Z,4.8
2023-03-03T03:07:23.142Z,5.2
2023-03-03T03:08:23.126Z,5.1
2023-03-03T03:09:23.146Z,5.3
2023-03-03T03:10:23.164Z,5.4
2023-03-03T03:11:23.129Z,5.4
2023-03-03T03:12:23.126Z,5.5
2023-03-03T03:13:23.136Z,5.5
2023-03-03T03:14:23.129Z,5.5
2023-03-03T03:15:23.133Z,5.6
2023-03-03T03:16:23.315Z,5.6
2023-03-03T03:17:23.129Z,5.7
2023-03-03T03:18:23.140Z,5.7
2023-03-03T03:19:23.161Z,5.6
2023-03-03T03:20:23.125Z,5.4
2023-03-03T03:21:23.129Z,5.5
2023-03-03T03:22:23.142Z,5.5
2023-03-03T03:23:23.149Z,5.5
2023-03-03T03:24:23.130Z,5.5
2023-03-03T03:25:23.121Z,5.7
2023-03-03T03:27:23.170Z,5.8
2023-03-03T03:28:23.128Z,5.9
2023-03-03T03:29:23.136Z,5.9
2023-03-03T03:30:23.132Z,5.7
2023-03-03T03:32:23.128Z,5.7
2023-03-03T03:33:23.124Z,5.9
2023-03-03T03:34:23.162Z,5.7
2023-03-03T03:35:23.194Z,5.6
2023-03-03T03:36:23.128Z,5.7
2023-03-03T03:37:23.136Z,5.8
2023-03-03T03:38:23.135Z,5.8
2023-03-03T03:39:23.130Z,5.7
2023-03-03T03:40:23.120Z,5.6
2023-03-03T03:41:23.179Z,5.3
2023-03-03T03:42:23.124Z,5.1
2023-03-03T03:43:23.130Z,5.1
2023-03-03T03:44:23.123Z,5.1
2023-03-03T03:45:23.122Z,5
2023-03-03T03:46:23.163Z,4.5
2023-03-03T03:48:23.165Z,4.1
2023-03-03T03:49:23.124Z,3.9
2023-03-03T03:50:23.112Z,4
2023-03-03T03:51:23.117Z,4.1
2023-03-03T03:53:23.119Z,4.3
2023-03-03T03:54:23.127Z,4.5
2023-03-03T03:55:23.187Z,4.5
2023-03-03T03:56:23.126Z,4.7
2023-03-03T03:57:25.621Z,4.7
2023-03-03T03:58:23.127Z,4.7
2023-03-03T03:59:23.135Z,4.7
2023-03-03T04:01:23.125Z,4.8
2023-03-03T04:02:23.199Z,4.8
2023-03-03T04:03:23.264Z,4.6
2023-03-03T04:04:23.168Z,4.5
2023-03-03T04:05:23.128Z,4.6
2023-03-03T04:06:23.125Z,4.6
2023-03-03T04:07:23.132Z,4.5
2023-03-03T04:08:23.123Z,4.5
2023-03-03T04:09:23.214Z,4.5
2023-03-03T04:10:23.162Z,4.6
2023-03-03T04:11:23.229Z,4.5
2023-03-03T04:12:23.451Z,4.4
2023-03-03T04:14:23.135Z,4.4
2023-03-03T04:15:23.137Z,4.6
2023-03-03T04:16:23.122Z,4.6
2023-03-03T04:17:23.158Z,4.7
2023-03-03T04:18:23.132Z,4.8
2023-03-03T04:19:23.121Z,4.9
2023-03-03T04:20:23.138Z,4.9
2023-03-03T04:21:23.126Z,5.1
2023-03-03T04:22:23.131Z,5.2
2023-03-03T04:23:23.132Z,5.3
2023-03-03T04:25:23.215Z,5.1
2023-03-03T04:26:23.164Z,4.9
2023-03-03T04:27:23.127Z,4.8
2023-03-03T04:28:23.152Z,4.9
2023-03-03T04:29:23.182Z,4.9
2023-03-03T04:30:23.132Z,4.7
2023-03-03T04:31:23.245Z,4.9
2023-03-03T04:32:23.189Z,5
2023-03-03T04:33:23.135Z,4.9
2023-03-03T04:34:23.138Z,5
2023-03-03T04:35:23.151Z,5
2023-03-03T04:36:23.142Z,4.8
2023-03-03T04:37:23.131Z,4.9
2023-03-03T04:38:23.160Z,4.8
2023-03-03T04:39:23.119Z,4.9
2023-03-03T04:41:23.129Z,5.1
2023-03-03T04:42:23.132Z,5
2023-03-03T04:43:23.136Z,4.8
2023-03-03T04:44:23.129Z,4.7
2023-03-03T04:46:23.265Z,4.7
2023-03-03T04:47:23.126Z,4.7
2023-03-03T04:48:23.140Z,4.7
2023-03-03T04:49:23.152Z,4.6
2023-03-03T04:50:23.122Z,4.3
2023-03-03T04:51:23.125Z,4.4
2023-03-03T04:52:23.127Z,4.6
2023-03-03T04:54:23.130Z,4.9
2023-03-03T04:55:23.127Z,4.9
2023-03-03T04:56:23.124Z,4.8
2023-03-03T04:57:23.128Z,5
2023-03-03T04:58:23.135Z,5.1
2023-03-03T04:59:23.164Z,5.2
2023-03-03T05:00:23.129Z,5.3
2023-03-03T05:02:23.119Z,5.3
2023-03-03T05:03:23.121Z,5.4
2023-03-03T05:04:23.128Z,5.5
2023-03-03T05:05:23.120Z,5.7
2023-03-03T05:07:23.133Z,6
2023-03-03T05:08:23.118Z,6
2023-03-03T05:09:23.115Z,6
2023-03-03T05:10:23.187Z,5.9
2023-03-03T05:12:23.111Z,5.6
2023-03-03T05:13:23.114Z,5.6
2023-03-03T05:15:23.137Z,5.8
2023-03-03T05:16:23.185Z,5.8
2023-03-03T05:17:23.110Z,6
2023-03-03T05:18:23.120Z,6.1
2023-03-03T05:19:23.170Z,6.2
2023-03-03T05:21:23.130Z,5.9
2023-03-03T05:22:23.114Z,5.9
2023-03-03T05:23:23.119Z,6.1
2023-03-03T05:24:23.113Z,6.1
2023-03-03T05:26:23.112Z,6
2023-03-03T05:27:23.122Z,6
2023-03-03T05:28:23.121Z,6
2023-03-03T05:29:23.113Z,6
2023-03-03T05:30:23.141Z,6
2023-03-03T05:31:23.153Z,5.7
2023-03-03T05:32:23.212Z,5.6
2023-03-03T05:34:23.110Z,5.5
2023-03-03T05:35:23.149Z,5.4
2023-03-03T05:36:23.112Z,5.2
2023-03-03T05:37:23.109Z,5
2023-03-03T05:38:23.108Z,5
2023-03-03T05:39:23.120Z,5.1
2023-03-03T05:40:23.110Z,5.1
2023-03-03T05:42:23.203Z,5.2
2023-03-03T05:43:23.112Z,5.1
2023-03-03T05:44:23.151Z,4.9
2023-03-03T05:45:23.105Z,5.1
2023-03-03T05:47:23.112Z,5.1
2023-03-03T05:48:23.109Z,5.1
2023-03-03T05:49:23.108Z,5.2
2023-03-03T05:50:23.106Z,5.4
2023-03-03T05:51:23.098Z,5.4
2023-03-03T05:52:23.107Z,5.4
2023-03-03T05:53:23.194Z,5.5
2023-03-03T05:55:23.121Z,5.6
2023-03-03T05:56:23.104Z,5.8
2023-03-03T05:57:23.109Z,5.9
2023-03-03T05:58:23.115Z,6
2023-03-03T06:00:23.117Z,6.1
2023-03-03T06:01:23.141Z,6.1
2023-03-03T06:02:23.120Z,6.2
2023-03-03T06:03:23.108Z,6.3
2023-03-03T06:04:23.140Z,6.3
2023-03-03T06:05:23.115Z,6.4
2023-03-03T06:06:23.118Z,6.4
2023-03-03T06:07:23.148Z,6.4
2023-03-03T06:08:23.107Z,6.3
2023-03-03T06:09:23.112Z,6.2
2023-03-03T06:10:23.113Z,6.1
2023-03-03T06:11:23.108Z,5.9
2023-03-03T06:12:23.107Z,5.8
2023-03-03T06:13:23.105Z,5.6
2023-03-03T06:14:24.781Z,5.6
2023-03-03T06:16:23.234Z,5.6
2023-03-03T06:17:23.120Z,5.7
2023-03-03T06:18:23.110Z,5.7
2023-03-03T06:19:23.104Z,5.8
2023-03-03T06:20:23.113Z,6
2023-03-03T06:21:23.123Z,5.8
2023-03-03T06:22:23.317Z,5.7
2023-03-03T06:23:23.111Z,5.7
2023-03-03T06:24:23.112Z,5.8
2023-03-03T06:25:23.110Z,5.9
2023-03-03T06:26:23.112Z,6
2023-03-03T06:27:23.105Z,6
2023-03-03T06:29:23.102Z,5.7
2023-03-03T06:30:23.104Z,5.4
2023-03-03T06:31:23.131Z,5.3
2023-03-03T06:33:23.106Z,5.4
2023-03-03T06:34:23.112Z,5.5
2023-03-03T06:35:23.248Z,5.4
2023-03-03T06:37:23.104Z,5.6
2023-03-03T06:38:23.140Z,5.8
2023-03-03T06:39:23.097Z,5.8
2023-03-03T06:40:23.105Z,5.7
2023-03-03T06:41:23.108Z,5.6
2023-03-03T06:42:23.109Z,5.7
2023-03-03T06:43:23.104Z,5.8
2023-03-03T06:44:23.113Z,5.6
2023-03-03T06:45:23.105Z,5.5
2023-03-03T06:46:23.109Z,5.5
2023-03-03T06:47:23.109Z,5.6
2023-03-03T06:48:23.193Z,5.8
2023-03-03T06:49:23.275Z,5.8
2023-03-03T06:50:23.099Z,5.8
2023-03-03T06:51:23.112Z,6
2023-03-03T06:52:23.104Z,6
2023-03-03T06:53:23.101Z,6.2
2023-03-03T06:54:25.095Z,6
2023-03-03T06:56:23.098Z,5.9
2023-03-03T06:57:23.152Z,5.7
2023-03-03T06:58:23.098Z,5.6
2023-03-03T06:59:23.098Z,5.8
2023-03-03T07:01:23.272Z,5.7
2023-03-03T07:02:23.107Z,5.7
2023-03-03T07:03:23.102Z,5.7
2023-03-03T07:04:23.167Z,5.9
2023-03-03T07:05:23.104Z,6
2023-03-03T07:06:23.182Z,5.7
2023-03-03T07:07:23.114Z,5.9
2023-03-03T07:08:23.156Z,5.7
2023-03-03T07:09:23.114Z,5.8
2023-03-03T07:11:23.136Z,5.6
2023-03-03T07:12:23.111Z,5.6
2023-03-03T07:13:23.109Z,5.6
2023-03-03T07:14:23.117Z,5.6
2023-03-03T07:16:23.180Z,5.7
2023-03-03T07:17:23.115Z,5.8
2023-03-03T07:19:23.161Z,5.9
2023-03-03T07:20:23.112Z,6
2023-03-03T07:21:23.120Z,6.1
2023-03-03T07:22:23.120Z,6.1
2023-03-03T07:24:23.135Z,5.8
2023-03-03T07:25:23.116Z,5.7
2023-03-03T07:26:23.145Z,5.9
2023-03-03T07:27:23.117Z,6
2023-03-03T07:28:23.190Z,6.2
2023-03-03T07:29:23.116Z,6.1
2023-03-03T07:30:23.114Z,6.1
2023-03-03T07:32:23.149Z,5.5
2023-03-03T07:33:23.113Z,5.5
2023-03-03T07:34:23.120Z,5.7
2023-03-03T07:35:23.133Z,5.7
2023-03-03T07:36:23.125Z,5.9
2023-03-03T07:37:23.166Z,6.1
2023-03-03T07:38:23.110Z,6.2
2023-03-03T07:39:23.129Z,6.3
2023-03-03T07:40:23.117Z,6.3
2023-03-03T07:41:23.117Z,6.3
2023-03-03T07:42:23.115Z,6.3
2023-03-03T07:43:23.134Z,6.2
2023-03-03T07:44:23.126Z,6
2023-03-03T07:45:23.121Z,6
2023-03-03T07:46:23.193Z,6.1
2023-03-03T07:47:23.121Z,6.2
2023-03-03T07:48:23.145Z,6.2
2023-03-03T07:49:23.174Z,6.4
2023-03-03T07:51:23.120Z,6.3
2023-03-03T07:52:23.122Z,6.4
2023-03-03T07:53:23.116Z,6.3
2023-03-03T07:54:23.133Z,6.3
2023-03-03T07:55:23.129Z,6.1
2023-03-03T07:56:23.118Z,6.2
2023-03-03T07:57:23.129Z,6.1
2023-03-03T07:59:23.112Z,5.8
2023-03-03T08:00:23.251Z,5.9
2023-03-03T08:01:23.119Z,5.7
2023-03-03T08:02:23.114Z,5.6
2023-03-03T08:04:23.322Z,5.6
2023-03-03T08:05:23.319Z,5.7
2023-03-03T08:06:23.118Z,5.9
2023-03-03T08:07:23.116Z,5.9
2023-03-03T08:08:23.111Z,5.9
2023-03-03T08:09:23.116Z,5.9
2023-03-03T08:10:23.182Z,5.4
2023-03-03T08:12:23.113Z,5.6
2023-03-03T08:13:23.214Z,5.9
2023-03-03T08:14:23.113Z,5.7
2023-03-03T08:15:17.630Z,5.4
2023-03-03T08:16:23.181Z,5.3
2023-03-03T08:17:23.103Z,5.4
2023-03-03T08:18:23.106Z,5.4
2023-03-03T08:20:23.098Z,5.3
2023-03-03T08:21:23.138Z,5.3
2023-03-03T08:22:23.105Z,5.4
2023-03-03T08:23:23.103Z,5.5
2023-03-03T08:24:23.126Z,5.6
2023-03-03T08:25:23.101Z,5.6
2023-03-03T08:26:23.102Z,5.4
2023-03-03T08:27:23.098Z,5.2
2023-03-03T08:28:23.146Z,5.1
2023-03-03T08:29:23.091Z,4.9
2023-03-03T08:30:23.099Z,4.9
2023-03-03T08:31:39.928Z,5.1
2023-03-03T08:33:23.094Z,5.3
2023-03-03T08:34:23.095Z,5.3
2023-03-03T08:35:23.132Z,5.3
2023-03-03T08:36:23.089Z,5.5
2023-03-03T08:37:23.114Z,5.6
2023-03-03T08:38:23.090Z,5.5
2023-03-03T08:39:23.099Z,5.7
2023-03-03T08:41:23.101Z,5.7
2023-03-03T08:42:23.093Z,5.8
2023-03-03T08:43:23.101Z,5.7
2023-03-03T08:44:23.103Z,5.9
2023-03-03T08:46:23.161Z,5.9
2023-03-03T08:47:23.114Z,6
2023-03-03T08:48:23.096Z,6
2023-03-03T08:49:23.100Z,6
2023-03-03T08:50:23.096Z,5.9
2023-03-03T08:51:23.098Z,5.8
2023-03-03T08:52:23.110Z,6
2023-03-03T08:54:23.119Z,6
2023-03-03T08:55:23.088Z,6
2023-03-03T08:56:23.095Z,5.9
2023-03-03T08:57:23.094Z,6.2
2023-03-03T08:58:33.603Z,6.2
2023-03-03T08:59:23.092Z,6.3
2023-03-03T09:00:23.092Z,6.1
2023-03-03T09:01:23.131Z,6.1
2023-03-03T09:02:23.090Z,6.1
2023-03-03T09:03:23.096Z,6.2
2023-03-03T09:04:23.150Z,6.3
2023-03-03T09:05:23.095Z,6.3
2023-03-03T09:06:23.132Z,6.2
2023-03-03T09:07:23.085Z,6.3
2023-03-03T09:09:23.093Z,6.4
2023-03-03T09:10:23.092Z,6.4
2023-03-03T09:11:23.096Z,6.4
2023-03-03T09:12:23.088Z,6.6
2023-03-03T09:13:23.096Z,6.5
2023-03-03T09:15:23.090Z,6.3
2023-03-03T09:16:23.155Z,6.4
2023-03-03T09:17:23.084Z,6.4
2023-03-03T09:18:23.093Z,6.4
2023-03-03T09:19:23.085Z,6.4
2023-03-03T09:20:23.093Z,6.4
2023-03-03T09:21:23.104Z,6.1
2023-03-03T09:22:23.095Z,6.3
2023-03-03T09:23:23.117Z,6.3
2023-03-03T09:24:23.094Z,6.4
2023-03-03T09:26:23.107Z,6.6
2023-03-03T09:27:23.094Z,6.6
2023-03-03T09:28:23.092Z,6.5
2023-03-03T09:29:23.087Z,6.5
2023-03-03T09:30:23.084Z,6.5
2023-03-03T09:31:23.137Z,6.1
2023-03-03T09:32:23.165Z,6.1
2023-03-03T09:33:23.090Z,6.2
2023-03-03T09:34:23.093Z,6.4
2023-03-03T09:35:23.115Z,6.5
2023-03-03T09:36:23.098Z,6.6
2023-03-03T09:37:23.110Z,6.2
2023-03-03T09:39:23.092Z,6.1
2023-03-03T09:40:23.083Z,6.2
2023-03-03T09:41:23.088Z,6.3
2023-03-03T09:42:23.075Z,6.3
2023-03-03T09:43:23.143Z,6
2023-03-03T09:44:23.087Z,6.2
2023-03-03T09:45:23.083Z,6.5
2023-03-03T09:47:23.086Z,6.4
2023-03-03T09:48:23.082Z,6.6
2023-03-03T09:49:25.258Z,6.5
2023-03-03T09:50:23.231Z,6.5
2023-03-03T09:51:23.098Z,6.4
2023-03-03T09:52:23.139Z,6.2
2023-03-03T09:53:23.090Z,6.3
2023-03-03T09:54:23.108Z,6.3
2023-03-03T09:55:25.249Z,6.3
2023-03-03T09:56:23.100Z,6.4
2023-03-03T09:57:23.077Z,6.3
2023-03-03T09:58:23.080Z,6.5
2023-03-03T10:00:23.183Z,6.6
2023-03-03T10:01:23.085Z,6.6
2023-03-03T10:02:23.080Z,6.6
2023-03-03T10:03:23.198Z,6.6
2023-03-03T10:04:23.132Z,6.8
2023-03-03T10:05:23.089Z,6.8
2023-03-03T10:06:23.090Z,6.7
2023-03-03T10:08:23.087Z,7
2023-03-03T10:09:23.084Z,7.2
2023-03-03T10:10:23.131Z,7.4
2023-03-03T10:11:23.104Z,7.3
2023-03-03T10:12:23.088Z,7.3
2023-03-03T10:13:23.085Z,7.3
2023-03-03T10:14:23.086Z,7.3
2023-03-03T10:16:23.132Z,7.5
2023-03-03T10:17:23.078Z,7.6
2023-03-03T10:18:23.084Z,7.5
2023-03-03T10:19:23.150Z,7.6
2023-03-03T10:21:23.089Z,7.3
2023-03-03T10:22:23.081Z,7.1
2023-03-03T10:23:23.094Z,7.1
2023-03-03T10:24:23.077Z,7.1
2023-03-03T10:25:23.113Z,7.2
2023-03-03T10:27:23.098Z,7.3
2023-03-03T10:28:23.081Z,7.5
2023-03-03T10:29:23.083Z,7.7
2023-03-03T10:30:38.254Z,7.4
2023-03-03T10:31:28.395Z,7.4
2023-03-03T10:33:23.311Z,7.5
2023-03-03T10:35:23.133Z,7.6
2023-03-03T10:36:23.138Z,7.7
2023-03-03T10:37:23.077Z,8
2023-03-03T10:38:23.096Z,7.8
2023-03-03T10:40:23.088Z,8
2023-03-03T10:41:23.129Z,8.1
2023-03-03T10:42:23.088Z,7.8
2023-03-03T10:43:31.914Z,7.7
2023-03-03T10:44:23.085Z,7.9
2023-03-03T10:45:23.091Z,7.7
2023-03-03T10:46:23.091Z,7.9
2023-03-03T10:48:23.075Z,8.3
2023-03-03T10:49:23.081Z,8.3
2023-03-03T10:50:23.079Z,8.2
2023-03-03T10:51:23.073Z,8.2
2023-03-03T10:52:23.075Z,8.3
2023-03-03T10:53:23.087Z,7.9
2023-03-03T10:54:23.085Z,8
2023-03-03T10:56:23.112Z,8.1
2023-03-03T10:57:23.145Z,8.3
2023-03-03T10:58:23.144Z,8.5
2023-03-03T10:59:23.081Z,8.6
2023-03-03T11:01:24.642Z,8.9
2023-03-03T11:02:23.107Z,9
2023-03-03T11:03:23.077Z,9.2
2023-03-03T11:04:23.183Z,9.3
2023-03-03T11:05:24.142Z,9.3
2023-03-03T11:06:23.088Z,9.3
2023-03-03T11:07:23.092Z,9.5
2023-03-03T11:09:23.083Z,9.4
2023-03-03T11:10:23.125Z,9.5
2023-03-03T11:11:23.084Z,9.5
2023-03-03T11:12:23.374Z,9.5
2023-03-03T11:13:23.085Z,9.4
2023-03-03T11:14:23.086Z,9.4
2023-03-03T11:15:23.082Z,9.3
2023-03-03T11:16:23.140Z,9.3
2023-03-03T11:17:23.089Z,9.4
2023-03-03T11:18:25.726Z,9.4
2023-03-03T11:19:23.078Z,9.4
2023-03-03T11:20:23.077Z,9.2
2023-03-03T11:22:23.076Z,9.5
2023-03-03T11:23:23.081Z,9.3
2023-03-03T11:24:25.049Z,9
2023-03-03T11:25:23.083Z,9
2023-03-03T11:26:23.075Z,9.1
2023-03-03T11:27:23.112Z,9.1
2023-03-03T11:28:23.083Z,9.4
2023-03-03T11:30:23.096Z,9.4
2023-03-03T11:31:23.105Z,9.3
2023-03-03T11:32:23.109Z,9.3
2023-03-03T11:33:23.122Z,9.5
2023-03-03T11:34:23.078Z,9.8
2023-03-03T11:35:23.204Z,9.7
2023-03-03T11:36:23.125Z,9.8
2023-03-03T11:37:23.089Z,9.8
2023-03-03T11:38:23.088Z,9.9
2023-03-03T11:39:23.079Z,9.9
2023-03-03T11:40:23.085Z,9.6
2023-03-03T11:41:23.082Z,9.4
2023-03-03T11:43:35.719Z,9.1
2023-03-03T11:44:23.082Z,8.7
2023-03-03T11:45:23.077Z,8.7
2023-03-03T11:46:23.105Z,8.4
2023-03-03T11:47:23.078Z,8.3
2023-03-03T11:48:23.109Z,8.6
2023-03-03T11:49:23.093Z,9
2023-03-03T11:51:23.098Z,9.3
2023-03-03T11:52:23.149Z,9.1
2023-03-03T11:53:23.084Z,9.3
2023-03-03T11:54:23.102Z,9.2
2023-03-03T11:55:23.898Z,9.4
2023-03-03T11:56:23.093Z,9.8
2023-03-03T11:57:23.082Z,10.1
2023-03-03T11:58:23.113Z,10.1
2023-03-03T11:59:23.080Z,10.3
2023-03-03T12:00:23.082Z,10.5
2023-03-03T12:02:23.130Z,10
2023-03-03T12:03:23.085Z,10.1
2023-03-03T12:04:23.083Z,10.3
2023-03-03T12:05:23.126Z,10.6
2023-03-03T12:06:23.089Z,10.8
2023-03-03T12:07:23.090Z,11.1
2023-03-03T12:08:23.081Z,11.5
2023-03-03T12:09:23.099Z,11.8
2023-03-03T12:10:23.136Z,11.9
2023-03-03T12:12:23.084Z,12.2
2023-03-03T12:13:23.088Z,12.1
2023-03-03T12:14:23.077Z,12.3
2023-03-03T12:15:23.078Z,12.5
2023-03-03T12:16:23.153Z,12.7
2023-03-03T12:17:23.080Z,12.9
2023-03-03T12:18:23.079Z,13
2023-03-03T12:19:23.080Z,12.9
2023-03-03T12:20:23.082Z,12.9
2023-03-03T12:21:23.126Z,12.9
2023-03-03T12:22:23.095Z,12.9
2023-03-03T12:23:23.084Z,12.9
2023-03-03T12:25:23.082Z,13
2023-03-03T12:26:23.082Z,13
2023-03-03T12:27:23.083Z,12.8
2023-03-03T12:28:23.093Z,12.6
2023-03-03T12:29:23.117Z,12.4
2023-03-03T12:30:23.135Z,12.2
2023-03-03T12:31:23.198Z,12
2023-03-03T12:33:23.087Z,11.6
2023-03-03T12:34:23.084Z,11.6
2023-03-03T12:35:23.150Z,11.2
2023-03-03T12:36:23.085Z,11.1
2023-03-03T12:38:23.083Z,11.5
2023-03-03T12:40:23.086Z,11.6
2023-03-03T12:41:23.094Z,11.9
2023-03-03T12:42:23.087Z,12
2023-03-03T12:43:23.077Z,12.3
2023-03-03T12:44:23.093Z,12.4
2023-03-03T12:46:28.632Z,12.6
2023-03-03T12:47:23.490Z,12.7
2023-03-03T12:48:23.094Z,12.7
2023-03-03T12:49:23.157Z,12.9
2023-03-03T12:50:23.082Z,13.1
2023-03-03T12:51:24.707Z,13.3
2023-03-03T12:52:23.141Z,13.4
2023-03-03T12:53:23.081Z,13.6
2023-03-03T12:54:23.125Z,13.8
2023-03-03T12:55:23.092Z,13.8
2023-03-03T12:56:23.089Z,13.3
2023-03-03T12:57:23.108Z,13.4
2023-03-03T12:58:23.100Z,13.5
2023-03-03T12:59:23.096Z,13.3
2023-03-03T13:00:23.114Z,13.1
2023-03-03T13:01:23.100Z,13
2023-03-03T13:02:23.077Z,13
2023-03-03T13:03:28.378Z,12.7
2023-03-03T13:04:23.118Z,12.6
2023-03-03T13:05:23.091Z,12.4
2023-03-03T13:06:23.089Z,12.6
2023-03-03T13:07:23.092Z,13
2023-03-03T13:08:23.098Z,13.3
2023-03-03T13:10:23.100Z,12.8
2023-03-03T13:11:23.085Z,12.9
2023-03-03T13:12:23.089Z,13
2023-03-03T13:13:23.092Z,13
2023-03-03T13:14:23.145Z,13
2023-03-03T13:15:31.699Z,12.7
2023-03-03T13:16:29.155Z,12.8
2023-03-03T13:17:23.199Z,12.7
2023-03-03T13:18:23.089Z,12.4
2023-03-03T13:19:23.086Z,12.2
2023-03-03T13:20:23.104Z,11.8
2023-03-03T13:21:23.157Z,11.7
2023-03-03T13:23:23.093Z,11.6
2023-03-03T13:24:23.108Z,11.7
2023-03-03T13:25:23.220Z,11.8
2023-03-03T13:26:23.136Z,11.6
2023-03-03T13:31:23.192Z,12.3
2023-03-03T13:35:23.127Z,12.7
2023-03-03T13:36:23.086Z,12.7
2023-03-03T13:37:23.083Z,12.9
2023-03-03T13:38:23.106Z,13
2023-03-03T13:39:23.104Z,13.1
2023-03-03T13:40:23.122Z,12.8
2023-03-03T13:41:23.101Z,12.8
2023-03-03T13:42:23.104Z,12.7
2023-03-03T13:44:23.142Z,12.7
2023-03-03T13:45:23.091Z,12.7
2023-03-03T13:46:23.251Z,12.9
2023-03-03T13:47:23.095Z,12.8
2023-03-03T13:48:23.087Z,12.7
2023-03-03T13:49:23.086Z,12.7
2023-03-03T13:50:23.090Z,12.7
2023-03-03T13:51:23.080Z,12.4
2023-03-03T13:52:23.092Z,11.9
2023-03-03T13:53:23.864Z,12
2023-03-03T13:54:23.092Z,12.2
2023-03-03T13:55:23.164Z,12.4
2023-03-03T13:56:23.096Z,12.4
2023-03-03T13:57:23.099Z,12.4
2023-03-03T13:58:23.271Z,12.4
2023-03-03T13:59:23.091Z,12.5
2023-03-03T14:00:23.089Z,12.7
2023-03-03T14:01:23.226Z,12.4
2023-03-03T14:02:23.116Z,12.5
2023-03-03T14:03:23.096Z,12.4
2023-03-03T14:05:23.097Z,12.4
2023-03-03T14:06:23.092Z,12.5
2023-03-03T14:07:23.174Z,12.4
2023-03-03T14:08:23.105Z,12.2
2023-03-03T14:09:23.091Z,12.1
2023-03-03T14:10:23.096Z,11.9
2023-03-03T14:11:23.097Z,11.5
2023-03-03T14:13:23.148Z,11.3
2023-03-03T14:14:23.096Z,11.1
2023-03-03T14:15:23.090Z,11.1
2023-03-03T14:16:23.152Z,11.2
2023-03-03T14:17:23.102Z,11.5
2023-03-03T14:18:23.140Z,11.7
2023-03-03T14:19:23.106Z,11.7
2023-03-03T14:20:23.100Z,11.8
2023-03-03T14:21:23.095Z,11.6
2023-03-03T14:22:23.093Z,11.7
2023-03-03T14:23:23.118Z,11.5
2023-03-03T14:24:23.086Z,11.4
2023-03-03T14:25:23.108Z,10.8
2023-03-03T14:26:23.093Z,10.4
2023-03-03T14:27:23.165Z,10.3
2023-03-03T14:28:23.095Z,10.2
2023-03-03T14:29:23.100Z,10.3
2023-03-03T14:30:23.094Z,10.5
2023-03-03T14:32:25.163Z,10.6
2023-03-03T14:33:23.122Z,10.9
2023-03-03T14:34:23.111Z,10.9
2023-03-03T14:35:23.160Z,10.8
2023-03-03T14:36:24.133Z,10.5
2023-03-03T14:37:23.100Z,10.5
2023-03-03T14:38:23.112Z,10.6
2023-03-03T14:39:23.104Z,10.5
2023-03-03T14:40:23.098Z,10.5
2023-03-03T14:41:23.111Z,10.6
2023-03-03T14:42:23.088Z,10.7
2023-03-03T14:43:23.160Z,10.1
2023-03-03T14:44:23.159Z,9.9
2023-03-03T14:45:29.423Z,10.1
2023-03-03T14:47:23.097Z,10.5
2023-03-03T14:48:23.101Z,10.6
2023-03-03T14:49:23.099Z,10.6
2023-03-03T14:50:23.099Z,10.6
2023-03-03T14:52:23.099Z,10.6
2023-03-03T14:53:23.101Z,10.5
2023-03-03T14:54:23.110Z,10.7
2023-03-03T14:55:23.097Z,10.7
2023-03-03T14:56:23.117Z,10.3
2023-03-03T14:57:23.101Z,10
2023-03-03T14:58:23.128Z,10.1
2023-03-03T14:59:23.095Z,10.4
2023-03-03T15:00:23.205Z,10.5
2023-03-03T15:01:23.188Z,10.7
2023-03-03T15:02:23.100Z,10.7
2023-03-03T15:03:23.090Z,10.8
2023-03-03T15:04:23.223Z,10.8
2023-03-03T15:05:23.097Z,10.9
2023-03-03T15:06:23.086Z,10.9
2023-03-03T15:08:23.109Z,10.7
2023-03-03T15:09:23.102Z,10.5
2023-03-03T15:10:23.097Z,10.4
2023-03-03T15:11:23.099Z,10.5
2023-03-03T15:12:23.103Z,10.4
2023-03-03T15:13:23.156Z,10.5
2023-03-03T15:14:23.089Z,10.6
2023-03-03T15:15:23.096Z,10.6
2023-03-03T15:16:23.105Z,10.7
2023-03-03T15:17:23.101Z,10.7
2023-03-03T15:18:23.095Z,10.8
2023-03-03T15:19:23.096Z,10.9
2023-03-03T15:20:23.096Z,10.9
2023-03-03T15:21:23.101Z,11.1
2023-03-03T15:22:23.097Z,11
2023-03-03T15:23:23.099Z,10.9
2023-03-03T15:24:23.172Z,11
2023-03-03T15:25:25.638Z,10.8
2023-03-03T15:27:23.132Z,10.9
2023-03-03T15:28:23.089Z,11
2023-03-03T15:29:23.099Z,11.2
2023-03-03T15:30:23.111Z,11.3
2023-03-03T15:31:23.237Z,11.4
2023-03-03T15:32:23.311Z,11.4